Time;durP1;ratioP1;P1;durP2;ratioP2;P2;SDS_P1;SDS_P2;PMS_P1;PMS_P2;Temp;Humidity;BMP_temperature;BMP_pressure;BME280_temperature;BME280_humidity;BME280_pressure;Samples;Min_cycle;Max_cycle;Signal;HPM_P1;HPM_P2
2022/04/30 00:02:17;;;;;;;16.47;7.13;;;9.60;99.90;;;;;;5056100;28;20230;-95
2022/04/30 00:04:48;;;;;;;16.50;8.77;;;9.50;99.90;;;;;;5055492;28;20191;-95
2022/04/30 00:07:34;;;;;;;;;;;;;;;;;;;;;
2022/04/30 00:10:08;;;;;;;13.87;8.37;;;9.40;99.90;;;;;;5055109;28;20369;-95
2022/04/30 00:12:38;;;;;;;12.90;8.77;;;9.40;99.90;;;;;;5055248;28;20202;-95
2022/04/30 00:15:07;;;;;;;17.30;8.30;;;9.40;99.90;;;;;;5056056;28;20221;-95
2022/04/30 00:17:35;;;;;;;15.17;8.33;;;9.30;99.90;;;;;;5057131;28;20224;-94
2022/04/30 00:20:09;;;;;;;16.47;7.70;;;9.30;99.90;;;;;;5057173;28;20207;-95
2022/04/30 00:22:59;;;;;;;10.40;7.87;;;9.20;99.90;;;;;;5054632;28;20211;-94
2022/04/30 00:25:29;;;;;;;18.47;9.83;;;9.30;99.90;;;;;;5054385;28;20249;-95
2022/04/30 00:27:56;;;;;;;9.20;8.30;;;9.30;99.90;;;;;;5054848;28;20222;-95
2022/04/30 00:30:29;;;;;;;16.47;9.23;;;9.30;99.90;;;;;;5054429;28;20197;-95
2022/04/30 00:33:01;;;;;;;14.65;9.20;;;9.30;99.90;;;;;;5054055;28;20448;-95
2022/04/30 00:35:30;;;;;;;11.87;8.23;;;9.40;99.90;;;;;;5054957;28;20191;-95
2022/04/30 00:38:02;;;;;;;10.30;8.00;;;9.20;99.90;;;;;;5055210;28;20199;-95
2022/04/30 00:40:34;;;;;;;8.20;7.37;;;9.10;99.90;;;;;;5054928;28;20202;-95
2022/04/30 00:43:05;;;;;;;11.30;8.20;;;9.00;99.90;;;;;;5056448;28;20220;-94
2022/04/30 00:45:42;;;;;;;12.07;7.90;;;8.90;99.90;;;;;;5054685;28;20203;-94
2022/04/30 00:48:15;;;;;;;11.47;9.00;;;8.90;99.90;;;;;;5054846;28;20236;-95
2022/04/30 00:50:49;;;;;;;11.70;8.57;;;8.90;99.90;;;;;;5054804;28;20217;-95
2022/04/30 00:53:22;;;;;;;11.53;8.67;;;9.00;99.90;;;;;;5054470;28;20192;-95
2022/04/30 00:55:58;;;;;;;12.83;8.40;;;9.00;99.90;;;;;;5058981;28;20423;-95
2022/04/30 00:58:29;;;;;;;9.37;7.90;;;8.90;99.90;;;;;;5062023;28;20926;-95
2022/04/30 01:00:59;;;;;;;11.60;8.43;;;8.80;99.90;;;;;;5057966;28;20225;-95
2022/04/30 01:03:26;;;;;;;9.70;8.30;;;8.70;99.90;;;;;;5047967;28;20231;-94
2022/04/30 01:05:55;;;;;;;17.00;8.73;;;8.70;99.90;;;;;;5050089;28;20199;-96
2022/04/30 01:08:56;;;;;;;13.83;8.50;;;8.70;99.90;;;;;;5042979;28;20230;-94
2022/04/30 01:11:30;;;;;;;12.70;8.30;;;8.70;99.90;;;;;;5056930;28;20183;-96
2022/04/30 01:14:00;;;;;;;11.93;8.37;;;8.60;99.90;;;;;;5054873;28;20274;-95
2022/04/30 01:16:27;;;;;;;13.33;8.40;;;8.50;99.90;;;;;;5055670;28;20191;-96
2022/04/30 01:19:04;;;;;;;14.90;8.63;;;8.50;99.90;;;;;;5051642;28;20202;-95
2022/04/30 01:21:42;;;;;;;12.80;8.50;;;8.60;99.90;;;;;;5053642;28;20191;-96
2022/04/30 01:24:20;;;;;;;12.43;8.17;;;8.50;99.90;;;;;;5057019;28;20215;-96
2022/04/30 01:27:05;;;;;;;11.90;8.30;;;8.50;99.90;;;;;;5053633;28;20203;-94
2022/04/30 01:29:37;;;;;;;10.57;8.30;;;8.60;99.90;;;;;;5053110;28;20234;-96
2022/04/30 01:37:57;;;;;;;10.60;8.33;;;8.40;99.90;;;;;;5053679;28;20270;-96
2022/04/30 01:40:34;;;;;;;11.10;7.77;;;8.40;99.90;;;;;;5051549;28;20195;-95
2022/04/30 01:43:23;;;;;;;11.57;8.00;;;8.50;99.90;;;;;;5052906;28;20487;-95
2022/04/30 01:45:51;;;;;;;11.03;7.00;;;8.40;99.90;;;;;;5040921;28;20203;-94
2022/04/30 01:48:22;;;;;;;7.97;6.33;;;8.30;99.90;;;;;;5042278;28;20316;-93
2022/04/30 01:50:50;;;;;;;10.00;7.33;;;8.30;99.90;;;;;;5037752;28;20283;-93
2022/04/30 01:53:17;;;;;;;8.43;7.50;;;8.20;99.90;;;;;;5038021;28;20214;-94
2022/04/30 01:55:48;;;;;;;11.27;7.03;;;8.20;99.90;;;;;;5039095;28;20199;-94
2022/04/30 01:58:19;;;;;;;10.63;6.43;;;8.30;99.90;;;;;;5037837;28;20643;-94
2022/04/30 02:00:49;;;;;;;11.53;7.97;;;8.20;99.90;;;;;;5037549;28;20195;-93
2022/04/30 02:03:22;;;;;;;9.70;6.60;;;8.20;99.90;;;;;;5044510;28;20682;-94
2022/04/30 02:06:02;;;;;;;11.33;6.67;;;8.10;99.90;;;;;;5036872;28;20487;-94
2022/04/30 02:08:35;;;;;;;7.10;6.23;;;8.10;99.90;;;;;;5054805;28;20241;-95
2022/04/30 02:11:11;;;;;;;8.50;7.13;;;8.20;99.90;;;;;;5054403;28;20211;-96
2022/04/30 02:13:41;;;;;;;14.00;7.37;;;8.20;99.90;;;;;;5056463;28;20202;-94
2022/04/30 02:16:16;;;;;;;13.57;7.30;;;8.20;99.90;;;;;;5055395;28;20206;-96
2022/04/30 02:18:51;;;;;;;9.43;7.00;;;8.10;99.90;;;;;;5053939;28;20210;-93
2022/04/30 02:21:23;;;;;;;9.50;6.93;;;8.00;99.90;;;;;;5047339;28;20213;-93
2022/04/30 02:23:57;;;;;;;11.97;7.03;;;7.80;99.90;;;;;;5046875;28;20210;-94
2022/04/30 02:26:29;;;;;;;10.63;6.87;;;7.80;99.90;;;;;;5041516;28;20237;-92
2022/04/30 02:29:01;;;;;;;10.33;6.97;;;7.90;99.90;;;;;;5040988;28;20238;-93
2022/04/30 02:31:30;;;;;;;8.00;6.60;;;8.00;99.90;;;;;;5043644;28;20212;-96
2022/04/30 02:34:01;;;;;;;7.17;6.53;;;8.00;99.90;;;;;;5051918;28;20279;-96
2022/04/30 02:36:29;;;;;;;8.97;6.53;;;8.10;99.90;;;;;;5052989;28;20218;-95
2022/04/30 02:39:00;;;;;;;8.23;6.57;;;8.00;99.90;;;;;;5052372;28;20236;-95
2022/04/30 02:41:35;;;;;;;9.10;6.47;;;7.70;99.90;;;;;;5054350;28;20199;-94
2022/04/30 02:44:14;;;;;;;8.83;7.30;;;7.70;99.90;;;;;;5053115;28;20203;-92
2022/04/30 02:46:47;;;;;;;11.63;7.00;;;7.70;99.90;;;;;;5054379;28;20215;-95
2022/04/30 02:49:17;;;;;;;9.87;7.20;;;7.70;99.90;;;;;;5055948;28;20262;-95
2022/04/30 02:51:51;;;;;;;10.07;7.10;;;7.80;99.90;;;;;;5053760;28;20199;-94
2022/04/30 02:54:23;;;;;;;9.10;8.15;;;7.80;99.90;;;;;;5052353;28;20814;-94
2022/04/30 02:57:28;;;;;;;13.13;7.67;;;7.80;99.90;;;;;;5055479;28;20203;-93
2022/04/30 02:59:58;;;;;;;8.50;7.10;;;7.60;99.90;;;;;;5056408;28;20198;-95
2022/04/30 03:02:28;;;;;;;10.97;7.07;;;7.50;99.90;;;;;;5050741;28;20298;-95
2022/04/30 03:05:12;;;;;;;10.30;7.43;;;7.50;99.90;;;;;;5045534;28;20199;-96
2022/04/30 03:07:40;;;;;;;7.87;6.23;;;7.50;99.90;;;;;;5042944;28;20207;-95
2022/04/30 03:10:08;;;;;;;9.53;6.57;;;7.60;99.90;;;;;;5042819;28;20222;-95
2022/04/30 03:12:37;;;;;;;10.13;6.83;;;7.60;99.90;;;;;;5042590;28;20207;-95
2022/04/30 03:15:10;;;;;;;8.13;7.33;;;7.60;99.90;;;;;;5042170;28;20219;-95
2022/04/30 03:23:10;;;;;;;8.87;7.40;;;7.50;99.90;;;;;;5044735;28;20217;-95
2022/04/30 03:25:37;;;;;;;14.53;6.93;;;7.50;99.90;;;;;;5041596;28;20218;-96
2022/04/30 03:28:04;;;;;;;8.23;6.47;;;7.60;99.90;;;;;;5044777;28;20207;-95
2022/04/30 03:30:35;;;;;;;8.00;7.07;;;7.50;99.90;;;;;;5046652;28;20267;-94
2022/04/30 03:33:12;;;;;;;8.07;6.70;;;7.60;99.90;;;;;;5048050;28;20203;-94
2022/04/30 03:35:45;;;;;;;8.80;6.60;;;7.50;99.90;;;;;;5051023;28;20199;-95
2022/04/30 03:38:13;;;;;;;10.93;6.17;;;7.40;99.90;;;;;;5046230;28;20207;-94
2022/04/30 03:40:42;;;;;;;7.27;6.40;;;7.20;99.90;;;;;;5046928;28;20215;-93
2022/04/30 03:43:21;;;;;;;10.43;7.27;;;7.30;99.90;;;;;;5045006;28;20290;-94
2022/04/30 03:45:55;;;;;;;11.67;7.27;;;7.20;99.90;;;;;;5046466;28;20191;-95
2022/04/30 03:48:28;;;;;;;10.77;7.07;;;7.20;99.90;;;;;;5049975;28;20273;-92
2022/04/30 03:51:41;;;;;;;7.83;5.97;;;7.10;99.90;;;;;;5049729;28;20212;-93
2022/04/30 03:54:28;;;;;;;7.33;6.63;;;7.10;99.90;;;;;;5058642;28;20198;-94
2022/04/30 03:56:57;;;;;;;9.93;6.80;;;7.00;99.90;;;;;;5067406;28;20219;-94
2022/04/30 03:59:39;;;;;;;8.23;6.37;;;7.00;99.90;;;;;;5073305;28;20511;-94
2022/04/30 04:02:18;;;;;;;8.33;6.40;;;7.10;99.90;;;;;;5072812;28;20271;-94
2022/04/30 04:04:53;;;;;;;8.47;6.67;;;7.00;99.90;;;;;;5071737;28;20256;-95
2022/04/30 04:07:23;;;;;;;11.93;6.37;;;6.90;99.90;;;;;;5069478;28;20201;-94
2022/04/30 04:09:54;;;;;;;9.33;6.73;;;6.90;99.90;;;;;;5067297;28;20230;-95
2022/04/30 04:12:30;;;;;;;10.77;6.67;;;6.90;99.90;;;;;;5068982;28;20186;-93
2022/04/30 04:18:02;;;;;;;8.10;7.07;;;6.90;99.90;;;;;;5065942;28;20189;-94
2022/04/30 04:20:32;;;;;;;10.30;7.63;;;6.90;99.90;;;;;;5066888;28;20458;-96
2022/04/30 04:23:12;;;;;;;10.27;7.10;;;6.80;99.90;;;;;;5070810;28;20427;-94
2022/04/30 04:26:00;;;;;;;10.50;7.47;;;6.80;99.90;;;;;;5063992;28;20206;-93
2022/04/30 04:28:27;;;;;;;15.17;8.27;;;6.80;99.90;;;;;;5066111;28;20222;-93
2022/04/30 04:30:57;;;;;;;9.23;7.10;;;6.60;99.90;;;;;;5066298;28;20202;-93
2022/04/30 04:33:42;;;;;;;10.87;7.97;;;6.50;99.90;;;;;;5068155;28;20432;-94
2022/04/30 04:36:17;;;;;;;9.13;7.93;;;6.60;99.90;;;;;;5066422;28;20801;-94
2022/04/30 04:38:49;;;;;;;8.97;7.47;;;6.60;99.90;;;;;;5067358;28;20439;-94
2022/04/30 04:41:19;;;;;;;11.43;7.90;;;6.60;99.90;;;;;;5060353;28;20448;-94
2022/04/30 04:43:46;;;;;;;14.57;8.30;;;6.70;99.90;;;;;;5059426;28;20809;-94
2022/04/30 04:46:18;;;;;;;10.83;8.30;;;6.60;99.90;;;;;;5057833;28;20194;-93
2022/04/30 04:48:47;;;;;;;10.37;7.47;;;6.70;99.90;;;;;;5055913;28;20210;-95
2022/04/30 04:51:17;;;;;;;13.03;8.57;;;6.70;99.90;;;;;;5055786;28;20213;-94
2022/04/30 04:53:47;;;;;;;11.90;9.03;;;6.70;99.90;;;;;;5054988;28;20208;-95
2022/04/30 04:56:16;;;;;;;12.53;9.17;;;6.50;99.90;;;;;;5055649;28;20294;-95
2022/04/30 04:58:46;;;;;;;11.77;8.90;;;6.50;99.90;;;;;;5055977;28;20654;-94
2022/04/30 05:01:14;;;;;;;9.53;7.90;;;6.50;99.90;;;;;;5056784;28;20509;-93
2022/04/30 05:03:48;;;;;;;9.77;8.53;;;6.60;99.90;;;;;;5057078;28;20724;-94
2022/04/30 05:06:17;;;;;;;11.87;8.27;;;6.60;99.90;;;;;;5059593;28;20249;-94
2022/04/30 05:08:54;;;;;;;10.53;8.73;;;6.60;99.90;;;;;;5059457;28;20275;-93
2022/04/30 05:11:38;;;;;;;15.20;8.83;;;6.60;99.90;;;;;;5057626;28;20956;-92
2022/04/30 05:14:06;;;;;;;12.20;8.83;;;6.50;99.90;;;;;;5056442;28;20573;-94
2022/04/30 05:16:38;;;;;;;11.53;8.73;;;6.50;99.90;;;;;;5062531;28;20459;-95
2022/04/30 05:19:29;;;;;;;10.67;8.67;;;6.60;99.90;;;;;;5060543;28;20213;-95
2022/04/30 05:21:57;;;;;;;13.90;9.60;;;6.60;99.90;;;;;;5061417;28;20193;-95
2022/04/30 05:24:25;;;;;;;12.47;9.63;;;6.70;99.90;;;;;;5059733;28;20209;-92
2022/04/30 05:26:51;;;;;;;14.90;10.23;;;6.80;99.90;;;;;;5055313;28;20209;-86
2022/04/30 05:29:18;;;;;;;14.43;9.23;;;6.80;99.90;;;;;;5052479;28;20475;-88
2022/04/30 05:31:45;;;;;;;16.03;9.10;;;6.80;99.90;;;;;;5052730;28;20665;-88
2022/04/30 05:34:12;;;;;;;14.30;9.30;;;7.00;99.90;;;;;;5052740;28;20206;-86
2022/04/30 05:36:40;;;;;;;15.10;10.47;;;6.90;99.90;;;;;;5053020;28;20443;-87
2022/04/30 05:39:07;;;;;;;13.13;9.40;;;7.00;99.90;;;;;;5052588;28;20214;-89
2022/04/30 05:41:34;;;;;;;13.85;11.57;;;7.00;99.90;;;;;;5054341;28;20439;-88
2022/04/30 05:44:01;;;;;;;13.70;10.30;;;7.10;99.90;;;;;;5056430;28;20212;-86
2022/04/30 05:46:30;;;;;;;14.50;9.87;;;7.20;99.90;;;;;;5056331;28;20210;-87
2022/04/30 05:48:57;;;;;;;12.83;9.63;;;7.20;99.90;;;;;;5056018;28;20206;-87
2022/04/30 05:51:23;;;;;;;13.33;9.77;;;7.30;99.90;;;;;;5056882;28;20194;-87
2022/04/30 05:53:52;;;;;;;12.97;9.53;;;7.30;99.90;;;;;;5056494;28;20195;-87
2022/04/30 05:56:18;;;;;;;12.47;9.40;;;7.20;99.90;;;;;;5055072;28;20665;-88
2022/04/30 05:58:46;;;;;;;12.97;9.67;;;7.30;99.90;;;;;;5056135;28;20206;-87
2022/04/30 06:01:13;;;;;;;15.90;10.63;;;7.30;99.90;;;;;;5056369;28;20190;-88
2022/04/30 06:03:40;;;;;;;16.70;10.03;;;7.40;99.90;;;;;;5056146;28;20240;-88
2022/04/30 06:06:08;;;;;;;15.95;12.52;;;7.60;99.90;;;;;;5055017;28;20448;-88
2022/04/30 06:08:35;;;;;;;14.53;10.83;;;7.70;99.90;;;;;;5056328;28;20331;-88
2022/04/30 06:11:06;;;;;;;12.90;10.53;;;7.70;99.90;;;;;;5055466;28;20237;-87
2022/04/30 06:13:33;;;;;;;13.83;10.13;;;7.70;99.90;;;;;;5055955;28;20195;-86
2022/04/30 06:16:00;;;;;;;12.23;10.13;;;7.80;99.90;;;;;;5056044;28;20197;-87
2022/04/30 06:18:26;;;;;;;16.07;10.83;;;7.90;99.90;;;;;;5055695;28;20215;-80
2022/04/30 06:20:53;;;;;;;13.47;10.90;;;7.90;99.90;;;;;;5055766;28;20199;-83
2022/04/30 06:23:20;;;;;;;12.40;11.07;;;8.00;99.90;;;;;;5055694;28;20764;-81
2022/04/30 06:25:47;;;;;;;17.37;12.03;;;8.00;99.90;;;;;;5055515;28;20198;-82
2022/04/30 06:28:16;;;;;;;15.57;11.67;;;8.00;99.90;;;;;;5055591;28;20207;-81
2022/04/30 06:30:43;;;;;;;12.43;10.97;;;8.10;99.90;;;;;;5055492;28;20230;-82
2022/04/30 06:33:10;;;;;;;17.07;11.53;;;8.10;99.90;;;;;;5055771;28;20202;-82
2022/04/30 06:35:37;;;;;;;15.83;11.53;;;8.30;99.90;;;;;;5055618;28;20213;-83
2022/04/30 06:38:06;;;;;;;14.37;11.07;;;8.40;99.90;;;;;;5055891;28;20270;-82
2022/04/30 06:40:33;;;;;;;17.73;11.33;;;8.60;99.90;;;;;;5055201;28;20294;-82
2022/04/30 06:43:01;;;;;;;15.67;11.30;;;8.60;99.90;;;;;;5055022;28;20681;-82
2022/04/30 06:45:30;;;;;;;15.07;10.70;;;8.60;99.90;;;;;;5055088;28;20570;-83
2022/04/30 06:47:56;;;;;;;14.90;10.97;;;8.60;99.90;;;;;;5054670;28;20202;-83
2022/04/30 06:50:23;;;;;;;14.20;10.70;;;8.70;99.90;;;;;;5054915;28;20227;-82
2022/04/30 06:58:19;;;;;;;16.63;10.77;;;8.90;99.90;;;;;;5054990;28;20186;-83
2022/04/30 07:03:32;;;;;;;13.73;10.00;;;9.40;99.90;;;;;;5054964;28;20225;-85
2022/04/30 07:06:04;;;;;;;17.40;9.93;;;9.50;99.90;;;;;;5055173;28;20201;-85
2022/04/30 07:08:32;;;;;;;15.93;10.27;;;9.70;99.90;;;;;;5055059;28;20241;-85
2022/04/30 07:10:59;;;;;;;11.57;10.30;;;9.80;99.90;;;;;;5054378;28;20630;-84
2022/04/30 07:13:25;;;;;;;14.53;9.83;;;9.80;99.90;;;;;;5054969;28;20198;-84
2022/04/30 07:15:53;;;;;;;15.37;9.57;;;9.80;99.90;;;;;;5054259;28;20217;-85
2022/04/30 07:18:20;;;;;;;11.93;10.32;;;9.70;99.90;;;;;;5054329;28;20535;-86
2022/04/30 07:20:47;;;;;;;11.27;8.63;;;9.70;99.90;;;;;;5054280;28;20207;-84
2022/04/30 07:23:14;;;;;;;9.07;8.10;;;9.80;99.90;;;;;;5053731;28;20187;-85
2022/04/30 07:25:41;;;;;;;15.83;8.60;;;10.00;99.90;;;;;;5053079;28;20199;-85
2022/04/30 07:28:08;;;;;;;7.60;6.90;;;10.00;99.90;;;;;;5053650;28;20612;-86
2022/04/30 07:30:36;;;;;;;9.10;7.40;;;10.00;99.90;;;;;;5054151;28;20226;-85
2022/04/30 07:33:04;;;;;;;10.30;7.87;;;9.90;99.90;;;;;;5054451;28;20194;-86
2022/04/30 07:35:31;;;;;;;12.97;7.70;;;9.70;99.90;;;;;;5054130;28;20301;-85
2022/04/30 07:37:58;;;;;;;9.60;7.13;;;9.70;99.90;;;;;;5053935;28;20213;-86
2022/04/30 07:40:25;;;;;;;11.47;7.20;;;9.70;99.90;;;;;;5053647;28;20206;-88
2022/04/30 07:42:52;;;;;;;10.30;7.93;;;9.60;99.90;;;;;;5054668;28;20453;-90
2022/04/30 07:45:25;;;;;;;8.23;7.43;;;9.50;99.90;;;;;;5054617;28;20208;-89
2022/04/30 07:47:54;;;;;;;9.33;6.97;;;9.40;99.90;;;;;;5054796;28;20211;-91
2022/04/30 07:50:26;;;;;;;9.00;6.73;;;9.50;99.90;;;;;;5054389;28;20285;-92
2022/04/30 07:52:59;;;;;;;9.13;6.97;;;9.50;99.90;;;;;;5054069;28;20202;-90
2022/04/30 07:55:28;;;;;;;10.27;7.07;;;9.60;99.90;;;;;;5070590;28;20209;-92
2022/04/30 07:57:54;;;;;;;10.60;7.40;;;9.90;99.90;;;;;;5074459;28;20640;-89
2022/04/30 08:00:21;;;;;;;14.67;8.03;;;10.10;99.90;;;;;;5065723;28;20214;-88
2022/04/30 08:02:51;;;;;;;9.23;6.43;;;10.30;99.90;;;;;;5043798;28;20219;-87
2022/04/30 08:05:18;;;;;;;11.00;6.70;;;10.50;99.90;;;;;;5053324;28;20294;-87
2022/04/30 08:07:49;;;;;;;7.23;6.30;;;10.70;99.90;;;;;;5053892;28;20199;-87
2022/04/30 08:10:19;;;;;;;8.27;6.67;;;10.80;99.90;;;;;;5053994;28;20716;-87
2022/04/30 08:12:53;;;;;;;8.90;6.50;;;10.80;99.90;;;;;;5054073;28;20638;-87
2022/04/30 08:15:22;;;;;;;6.00;5.20;;;11.00;99.90;;;;;;5054273;28;20276;-89
2022/04/30 08:17:48;;;;;;;5.97;5.30;;;11.10;99.90;;;;;;5053881;28;20202;-88
2022/04/30 08:20:15;;;;;;;8.00;5.17;;;11.00;99.90;;;;;;5053328;28;20205;-87
2022/04/30 08:22:43;;;;;;;5.93;4.90;;;11.10;99.90;;;;;;5053859;28;20658;-90
2022/04/30 08:25:11;;;;;;;5.70;4.60;;;11.20;99.90;;;;;;5053556;28;20196;-87
2022/04/30 08:27:40;;;;;;;6.90;5.37;;;11.30;99.90;;;;;;5053849;28;20197;-90
2022/04/30 08:30:10;;;;;;;6.33;5.30;;;11.20;99.90;;;;;;5039910;28;20346;-89
2022/04/30 08:32:40;;;;;;;5.97;5.38;;;11.10;99.90;;;;;;5053236;28;20433;-89
2022/04/30 08:35:08;;;;;;;6.33;4.70;;;11.10;99.90;;;;;;5054464;28;20209;-89
2022/04/30 08:37:41;;;;;;;6.23;4.17;;;11.00;99.90;;;;;;5054095;28;20221;-89
2022/04/30 08:40:12;;;;;;;4.20;3.80;;;11.10;99.90;;;;;;5054284;28;20217;-90
2022/04/30 08:42:42;;;;;;;3.87;3.60;;;11.10;99.90;;;;;;5054286;28;20221;-90
2022/04/30 08:45:11;;;;;;;6.43;4.70;;;11.00;99.90;;;;;;5054011;28;20236;-89
2022/04/30 08:47:41;;;;;;;5.50;4.10;;;11.20;99.90;;;;;;5053695;28;20202;-90
2022/04/30 08:50:10;;;;;;;6.00;4.00;;;11.40;99.90;;;;;;5053160;28;20242;-89
2022/04/30 08:52:43;;;;;;;4.47;4.03;;;11.60;99.90;;;;;;5053082;28;20199;-87
2022/04/30 08:55:11;;;;;;;6.77;4.57;;;11.80;99.90;;;;;;5051860;28;20203;-88
2022/04/30 08:57:44;;;;;;;7.50;6.07;;;11.90;99.90;;;;;;5052374;28;20654;-92
2022/04/30 09:00:11;;;;;;;10.30;8.23;;;11.70;99.90;;;;;;5060826;28;20209;-87
2022/04/30 09:02:49;;;;;;;8.13;7.33;;;11.40;99.90;;;;;;5056764;28;20230;-88
2022/04/30 09:05:16;;;;;;;14.77;7.97;;;11.10;99.90;;;;;;5056114;28;20197;-88
2022/04/30 09:07:52;;;;;;;8.57;7.80;;;11.10;99.90;;;;;;5060895;28;20210;-88
2022/04/30 09:10:24;;;;;;;8.30;7.50;;;11.10;99.90;;;;;;5056776;28;20233;-88
2022/04/30 09:12:51;;;;;;;9.90;7.67;;;11.30;99.90;;;;;;5047275;28;20202;-87
2022/04/30 09:15:19;;;;;;;8.03;7.40;;;11.40;99.90;;;;;;5052809;28;20581;-88
2022/04/30 09:17:56;;;;;;;9.40;7.57;;;11.50;99.90;;;;;;5055473;28;20575;-88
2022/04/30 09:20:23;;;;;;;8.10;7.30;;;11.60;99.90;;;;;;5056380;28;20221;-87
2022/04/30 09:22:49;;;;;;;9.70;6.80;;;11.80;99.90;;;;;;5056732;28;20202;-89
2022/04/30 09:25:17;;;;;;;8.30;6.87;;;11.50;99.90;;;;;;5057186;28;20194;-88
2022/04/30 09:27:48;;;;;;;7.37;6.70;;;11.40;99.90;;;;;;5055623;28;20206;-88
2022/04/30 09:30:16;;;;;;;6.83;6.23;;;11.50;99.90;;;;;;5054132;28;20203;-89
2022/04/30 09:32:43;;;;;;;7.17;6.57;;;11.50;99.90;;;;;;5036857;28;20659;-87
2022/04/30 09:38:06;;;;;;;7.30;6.60;;;11.80;99.90;;;;;;5052708;28;20193;-88
2022/04/30 09:40:33;;;;;;;10.60;8.07;;;11.70;99.90;;;;;;5056658;28;20685;-88
2022/04/30 09:43:04;;;;;;;8.83;7.93;;;11.80;99.90;;;;;;5055225;28;20628;-86
2022/04/30 09:45:32;;;;;;;8.40;7.53;;;11.90;99.90;;;;;;5054318;28;20426;-88
2022/04/30 09:48:00;;;;;;;7.27;6.57;;;11.90;99.90;;;;;;5056134;28;20565;-87
2022/04/30 09:56:05;;;;;;;6.67;6.17;;;12.20;99.90;;;;;;5052874;28;20257;-85
2022/04/30 09:58:39;;;;;;;7.30;5.80;;;12.10;99.90;;;;;;5055909;28;20198;-83
2022/04/30 10:01:07;;;;;;;7.33;5.60;;;12.20;99.90;;;;;;5054328;28;20234;-88
2022/04/30 10:03:42;;;;;;;6.20;5.63;;;12.00;99.90;;;;;;5058692;28;20218;-88
2022/04/30 10:06:08;;;;;;;6.80;5.83;;;12.30;99.90;;;;;;5055989;28;20202;-87
2022/04/30 10:08:37;;;;;;;6.00;5.40;;;12.30;99.90;;;;;;5056440;28;20206;-86
2022/04/30 10:11:14;;;;;;;6.47;5.88;;;12.50;99.90;;;;;;5055384;28;20456;-87
2022/04/30 10:13:50;;;;;;;6.00;5.40;;;12.10;99.90;;;;;;5056357;28;20672;-89
2022/04/30 10:16:24;;;;;;;7.97;5.60;;;12.00;99.90;;;;;;5055784;28;20209;-89
2022/04/30 10:19:10;;;;;;;5.63;5.13;;;12.20;99.90;;;;;;5055128;28;20206;-87
2022/04/30 10:21:37;;;;;;;6.40;5.80;;;12.50;99.90;;;;;;5054585;28;20206;-88
2022/04/30 10:24:05;;;;;;;5.63;4.90;;;12.40;99.90;;;;;;5055677;28;20207;-86
2022/04/30 10:26:32;;;;;;;5.97;5.30;;;12.50;99.90;;;;;;5054844;28;20209;-87
2022/04/30 10:29:02;;;;;;;6.90;4.80;;;12.60;99.90;;;;;;5054895;28;20210;-88
2022/04/30 10:31:29;;;;;;;4.77;4.37;;;12.60;99.90;;;;;;5055387;28;20238;-87
2022/04/30 10:33:55;;;;;;;6.20;5.43;;;12.70;99.90;;;;;;5055665;28;20213;-88
2022/04/30 10:36:23;;;;;;;5.87;5.00;;;13.00;99.90;;;;;;5056075;28;20223;-86
2022/04/30 10:38:59;;;;;;;5.67;4.77;;;12.90;99.90;;;;;;5055644;28;20204;-85
2022/04/30 10:41:26;;;;;;;5.87;5.03;;;12.80;99.90;;;;;;5055411;28;20204;-84
2022/04/30 10:44:02;;;;;;;6.03;5.40;;;13.10;99.90;;;;;;5055353;28;20204;-84
2022/04/30 10:46:37;;;;;;;6.60;5.63;;;13.20;99.90;;;;;;5055355;28;20299;-84
2022/04/30 10:49:05;;;;;;;7.87;6.67;;;13.40;99.90;;;;;;5055517;28;20209;-87
2022/04/30 10:51:38;;;;;;;6.73;6.13;;;13.20;99.90;;;;;;5055378;28;20289;-86
2022/04/30 10:54:09;;;;;;;8.77;6.43;;;12.90;99.90;;;;;;5055618;28;20247;-87
2022/04/30 10:56:36;;;;;;;7.13;6.43;;;13.20;99.90;;;;;;5055660;28;20206;-84
2022/04/30 10:59:05;;;;;;;8.07;6.67;;;13.30;99.90;;;;;;5054759;28;20531;-86
2022/04/30 11:01:32;;;;;;;7.00;6.37;;;13.70;99.90;;;;;;5054813;28;20587;-85
2022/04/30 11:04:00;;;;;;;6.47;5.70;;;13.80;99.90;;;;;;5055043;28;20213;-87
2022/04/30 11:06:30;;;;;;;6.83;5.63;;;14.10;99.90;;;;;;5055199;28;20535;-85
2022/04/30 11:08:58;;;;;;;7.37;5.80;;;14.00;99.90;;;;;;5055236;28;20194;-84
2022/04/30 11:11:25;;;;;;;7.53;5.30;;;13.80;99.90;;;;;;5055004;28;20295;-85
2022/04/30 11:14:07;;;;;;;6.53;5.90;;;13.60;99.90;;;;;;5055547;28;20212;-87
2022/04/30 11:16:37;;;;;;;7.43;5.77;;;13.40;99.90;;;;;;5054860;28;20208;-87
2022/04/30 11:19:07;;;;;;;6.30;5.70;;;13.10;99.90;;;;;;5055196;28;20212;-84
2022/04/30 11:21:36;;;;;;;5.77;5.33;;;13.20;99.90;;;;;;5051679;28;20189;-84
2022/04/30 11:24:03;;;;;;;6.93;6.20;;;13.00;99.90;;;;;;5054434;28;20550;-84
2022/04/30 11:26:30;;;;;;;6.47;5.87;;;13.10;99.90;;;;;;5053251;28;20265;-81
2022/04/30 11:28:58;;;;;;;7.10;6.37;;;13.50;99.90;;;;;;5054577;28;20202;-81
2022/04/30 11:31:26;;;;;;;9.97;6.00;;;13.60;99.90;;;;;;5053467;28;20232;-78
2022/04/30 11:33:53;;;;;;;7.33;6.63;;;13.90;99.90;;;;;;5053724;28;20198;-79
2022/04/30 11:36:20;;;;;;;5.17;4.73;;;14.40;99.90;;;;;;5053004;28;20194;-80
2022/04/30 11:39:04;;;;;;;7.07;5.57;;;14.30;99.90;;;;;;5054155;28;20202;-81
2022/04/30 11:41:38;;;;;;;7.50;6.00;;;14.10;99.90;;;;;;5052853;28;20206;-80
2022/04/30 11:44:06;;;;;;;7.70;6.00;;;13.60;99.90;;;;;;5053991;28;20205;-80
2022/04/30 11:46:36;;;;;;;6.77;5.97;;;13.80;99.90;;;;;;5053165;28;20563;-81
2022/04/30 11:49:08;;;;;;;12.03;6.47;;;13.80;99.90;;;;;;5053489;28;20236;-80
2022/04/30 11:51:35;;;;;;;6.57;5.70;;;13.90;99.90;;;;;;5042555;28;20271;-80
2022/04/30 11:54:03;;;;;;;9.07;5.70;;;14.00;99.90;;;;;;5053772;28;20652;-81
2022/04/30 11:56:32;;;;;;;8.07;5.97;;;14.20;99.90;;;;;;5053128;28;20214;-81
2022/04/30 11:58:58;;;;;;;5.97;5.47;;;14.00;99.90;;;;;;5053208;28;20199;-81
2022/04/30 12:01:26;;;;;;;6.93;5.27;;;14.20;99.90;;;;;;5053073;28;20224;-79
2022/04/30 12:03:56;;;;;;;7.63;5.20;;;13.90;99.90;;;;;;5053977;28;20198;-81
2022/04/30 12:06:25;;;;;;;5.43;5.00;;;14.20;99.90;;;;;;5053667;28;20198;-81
2022/04/30 12:08:52;;;;;;;5.90;5.27;;;14.30;99.90;;;;;;5053711;28;20203;-82
2022/04/30 12:11:19;;;;;;;5.83;5.23;;;14.30;99.90;;;;;;5053416;28;20257;-82
2022/04/30 12:13:57;;;;;;;6.60;5.90;;;14.30;99.90;;;;;;5051957;28;20925;-81
2022/04/30 12:16:24;;;;;;;9.07;5.60;;;14.40;99.90;;;;;;5053275;28;20205;-80
2022/04/30 12:24:49;;;;;;;6.10;5.53;;;14.10;99.90;;;;;;5053475;28;20688;-81
2022/04/30 12:27:23;;;;;;;7.07;5.60;;;13.80;99.90;;;;;;5053338;28;20217;-81
2022/04/30 12:30:00;;;;;;;6.03;5.43;;;13.60;99.90;;;;;;5052989;28;20209;-82
2022/04/30 12:32:27;;;;;;;8.17;5.47;;;13.70;99.90;;;;;;5053114;28;20220;-81
2022/04/30 12:34:56;;;;;;;7.63;5.67;;;13.40;99.90;;;;;;5053147;28;20547;-81
2022/04/30 12:37:32;;;;;;;7.70;5.90;;;13.40;99.90;;;;;;5052334;28;20914;-81
2022/04/30 12:39:59;;;;;;;6.93;5.33;;;13.80;99.90;;;;;;5053267;28;20201;-82
2022/04/30 12:42:25;;;;;;;9.40;5.50;;;13.70;99.90;;;;;;5052673;28;20221;-82
2022/04/30 12:44:52;;;;;;;7.13;5.20;;;13.90;99.90;;;;;;5053313;28;20198;-82
2022/04/30 12:47:19;;;;;;;5.00;4.50;;;13.90;99.90;;;;;;5052674;28;20217;-82
2022/04/30 12:49:46;;;;;;;8.17;4.67;;;14.00;99.90;;;;;;5052601;28;20656;-82
2022/04/30 12:52:12;;;;;;;6.10;4.40;;;14.10;99.90;;;;;;5052658;28;20300;-82
2022/04/30 12:54:41;;;;;;;5.60;3.97;;;14.10;99.90;;;;;;5052583;28;20677;-82
2022/04/30 12:57:10;;;;;;;8.50;4.40;;;14.10;99.90;;;;;;5052670;28;20193;-83
2022/04/30 12:59:37;;;;;;;5.73;4.67;;;13.70;99.90;;;;;;5052709;28;20297;-84
2022/04/30 13:02:04;;;;;;;4.82;4.35;;;13.80;99.90;;;;;;5052314;28;20437;-83
2022/04/30 13:04:31;;;;;;;4.50;4.17;;;13.90;99.90;;;;;;5052141;28;20209;-83
2022/04/30 13:06:58;;;;;;;4.40;4.00;;;14.00;99.90;;;;;;5052994;28;20217;-82
2022/04/30 13:14:55;;;;;;;6.17;5.40;;;14.30;99.90;;;;;;5052935;28;20208;-83
2022/04/30 13:17:22;;;;;;;5.67;4.03;;;14.00;99.90;;;;;;5052914;28;20559;-83
2022/04/30 13:19:51;;;;;;;5.07;4.07;;;14.00;99.90;;;;;;5052868;28;20244;-83
2022/04/30 13:22:17;;;;;;;6.07;4.23;;;14.10;99.90;;;;;;5052559;28;20276;-82
2022/04/30 13:24:44;;;;;;;5.93;4.30;;;14.40;99.90;;;;;;5052492;28;20568;-82
2022/04/30 13:27:12;;;;;;;8.50;4.03;;;14.30;99.90;;;;;;5051789;28;20201;-81
2022/04/30 13:29:39;;;;;;;4.70;4.23;;;14.00;99.90;;;;;;5052537;28;20199;-80
2022/04/30 13:32:07;;;;;;;6.83;4.30;;;13.70;99.90;;;;;;5053124;28;20237;-81
2022/04/30 13:34:33;;;;;;;4.23;3.93;;;13.90;99.90;;;;;;5052486;28;20653;-81
2022/04/30 13:37:02;;;;;;;5.60;4.37;;;14.00;99.90;;;;;;5052432;28;20199;-83
2022/04/30 13:39:29;;;;;;;5.77;4.27;;;14.20;99.90;;;;;;5052614;28;20216;-84
2022/04/30 13:41:56;;;;;;;5.27;3.70;;;14.10;99.90;;;;;;5052545;28;20263;-84
2022/04/30 13:44:24;;;;;;;5.40;4.27;;;13.90;99.90;;;;;;5052474;28;20208;-85
2022/04/30 13:46:52;;;;;;;7.37;4.07;;;13.70;99.90;;;;;;5052827;28;20212;-84
2022/04/30 13:49:19;;;;;;;3.97;3.63;;;13.50;99.90;;;;;;5052414;28;20209;-84